Time;durP1;ratioP1;P1;durP2;ratioP2;P2;SDS_P1;SDS_P2;PMS_P1;PMS_P2;Temp;Humidity;BMP_temperature;BMP_pressure;BME280_temperature;BME280_humidity;BME280_pressure;Samples;Min_cycle;Max_cycle;Signal;HPM_P1;HPM_P2
2023/11/29 00:02:23;;;;;;;4.95;3.03;;;15.20;65.10;;;;;;5098562;28;20024;-68
2023/11/29 00:04:49;;;;;;;4.32;2.70;;;15.10;65.00;;;;;;5097793;28;20040;-68
2023/11/29 00:07:15;;;;;;;5.03;2.88;;;15.10;65.10;;;;;;5095033;28;20512;-69
2023/11/29 00:09:41;;;;;;;4.40;2.53;;;15.20;65.00;;;;;;5094446;28;20024;-70
2023/11/29 00:12:07;;;;;;;4.70;2.45;;;15.20;65.00;;;;;;5086400;28;20122;-70
2023/11/29 00:14:32;;;;;;;16.02;2.47;;;15.10;64.90;;;;;;5098093;28;20035;-65
2023/11/29 00:16:58;;;;;;;3.40;2.40;;;15.20;65.00;;;;;;5094971;28;20058;-67
2023/11/29 00:19:23;;;;;;;4.40;2.80;;;15.20;64.80;;;;;;5086225;28;20129;-69
2023/11/29 00:21:49;;;;;;;5.65;2.78;;;15.20;64.80;;;;;;5090470;28;20040;-69
2023/11/29 00:24:14;;;;;;;5.22;3.05;;;15.20;64.80;;;;;;5102161;28;20426;-71
2023/11/29 00:26:40;;;;;;;3.10;1.92;;;15.20;64.90;;;;;;5100420;28;20031;-71
2023/11/29 00:29:06;;;;;;;3.53;2.50;;;15.20;64.90;;;;;;5100068;28;20039;-69
2023/11/29 00:31:32;;;;;;;2.22;1.90;;;15.20;64.90;;;;;;5092917;28;20032;-68
2023/11/29 00:33:57;;;;;;;3.28;2.53;;;15.20;64.80;;;;;;5091344;28;20127;-69
2023/11/29 00:36:24;;;;;;;4.78;2.53;;;15.20;65.40;;;;;;5092447;28;20052;-68
2023/11/29 00:38:49;;;;;;;4.95;2.15;;;15.20;64.60;;;;;;5103703;28;20035;-69
2023/11/29 00:41:15;;;;;;;2.55;2.08;;;15.20;65.30;;;;;;5091860;28;20038;-71
2023/11/29 00:43:40;;;;;;;2.10;1.80;;;15.20;64.60;;;;;;5087534;28;20055;-69
2023/11/29 00:46:06;;;;;;;3.55;2.40;;;15.10;64.50;;;;;;5091697;28;20493;-70
2023/11/29 00:48:31;;;;;;;2.92;2.05;;;15.20;64.70;;;;;;5096791;28;20032;-69
2023/11/29 00:50:57;;;;;;;2.88;2.00;;;15.20;64.60;;;;;;5094932;28;20549;-66
2023/11/29 00:53:23;;;;;;;2.35;1.55;;;15.20;64.80;;;;;;5093095;28;20075;-70
2023/11/29 00:55:49;;;;;;;2.17;1.90;;;15.20;64.80;;;;;;5096825;28;20522;-69
2023/11/29 00:58:15;;;;;;;2.35;1.90;;;15.20;64.60;;;;;;5091175;28;20409;-70
2023/11/29 01:00:40;;;;;;;1.73;1.58;;;15.20;64.50;;;;;;5100115;28;20055;-70
2023/11/29 01:03:06;;;;;;;2.00;1.80;;;15.20;64.50;;;;;;5096933;28;20031;-70
2023/11/29 01:05:31;;;;;;;6.53;1.80;;;15.20;64.40;;;;;;5095702;28;20115;-68
2023/11/29 01:07:57;;;;;;;3.25;1.80;;;15.20;65.10;;;;;;5090340;28;20016;-68
2023/11/29 01:10:23;;;;;;;5.32;1.40;;;15.30;65.10;;;;;;5092241;28;20032;-67
2023/11/29 01:12:48;;;;;;;4.32;2.00;;;15.20;65.10;;;;;;5074437;28;20441;-67
2023/11/29 01:15:14;;;;;;;3.55;1.90;;;15.30;65.00;;;;;;5089745;28;20019;-70
2023/11/29 01:17:39;;;;;;;3.00;1.58;;;15.20;65.10;;;;;;5087165;28;20032;-70
2023/11/29 01:20:06;;;;;;;3.15;1.70;;;15.30;65.20;;;;;;5093367;28;20513;-69
2023/11/29 01:22:32;;;;;;;5.20;2.03;;;15.20;65.20;;;;;;5097893;28;20039;-69
2023/11/29 01:24:58;;;;;;;3.40;1.73;;;15.30;64.90;;;;;;5096646;28;20028;-68
2023/11/29 01:27:23;;;;;;;3.00;1.40;;;15.30;65.10;;;;;;5105296;28;20115;-68
2023/11/29 01:29:49;;;;;;;3.35;1.50;;;15.30;65.00;;;;;;5100935;28;20042;-68
2023/11/29 01:32:14;;;;;;;4.38;1.90;;;15.20;64.70;;;;;;5103473;28;20092;-67
2023/11/29 01:34:41;;;;;;;4.25;1.67;;;15.20;64.90;;;;;;5092254;28;20794;-69
2023/11/29 01:37:07;;;;;;;2.72;1.55;;;15.30;64.90;;;;;;5104590;28;20027;-68
2023/11/29 01:39:32;;;;;;;1.73;1.50;;;15.20;64.80;;;;;;5099943;28;20031;-69
2023/11/29 01:41:58;;;;;;;1.85;1.58;;;15.20;65.00;;;;;;5102211;28;20029;-69
2023/11/29 01:44:24;;;;;;;2.90;1.55;;;15.20;65.00;;;;;;5092945;28;20506;-70
2023/11/29 01:46:50;;;;;;;2.70;1.58;;;15.30;64.70;;;;;;5092954;28;20430;-69
2023/11/29 01:49:19;;;;;;;2.08;1.23;;;15.30;64.60;;;;;;5099209;28;20030;-70
2023/11/29 01:51:48;;;;;;;2.72;1.40;;;15.30;64.40;;;;;;5082641;28;20031;-71
2023/11/29 01:54:14;;;;;;;2.38;1.55;;;15.30;64.40;;;;;;5104222;28;20394;-68
2023/11/29 01:56:40;;;;;;;2.60;1.23;;;15.30;64.20;;;;;;5104340;28;20061;-69
2023/11/29 01:59:05;;;;;;;1.98;1.35;;;15.30;64.50;;;;;;5089460;28;20051;-70
2023/11/29 02:01:31;;;;;;;3.03;1.50;;;15.30;64.10;;;;;;5077246;28;20039;-69
2023/11/29 02:03:58;;;;;;;1.27;1.08;;;15.30;64.30;;;;;;5094113;28;20036;-69
2023/11/29 02:06:24;;;;;;;3.10;1.38;;;15.30;64.50;;;;;;5098005;28;20252;-70
2023/11/29 02:08:49;;;;;;;2.65;1.30;;;15.30;64.40;;;;;;5080942;28;20776;-70
2023/11/29 02:11:18;;;;;;;1.52;1.25;;;15.30;64.50;;;;;;5096503;28;20064;-68
2023/11/29 02:13:43;;;;;;;4.97;1.40;;;15.30;64.40;;;;;;5095120;28;20039;-71
2023/11/29 02:16:09;;;;;;;3.53;1.20;;;15.30;64.40;;;;;;5098113;28;20028;-69
2023/11/29 02:18:34;;;;;;;10.27;1.65;;;15.40;64.70;;;;;;5098798;28;20027;-67
2023/11/29 02:21:00;;;;;;;2.80;1.10;;;15.40;65.20;;;;;;5099903;28;20486;-68
2023/11/29 02:23:41;;;;;;;1.50;1.40;;;15.40;64.50;;;;;;5095153;28;20077;-68
2023/11/29 02:26:07;;;;;;;3.03;1.27;;;15.40;64.00;;;;;;5096811;28;20142;-69
2023/11/29 02:28:34;;;;;;;1.90;1.30;;;15.40;64.10;;;;;;5099880;28;20659;-68
2023/11/29 02:30:59;;;;;;;1.67;1.15;;;15.40;64.20;;;;;;5088642;28;20039;-68
2023/11/29 02:33:25;;;;;;;2.00;1.40;;;15.40;63.90;;;;;;5090347;28;20610;-67
2023/11/29 02:35:50;;;;;;;4.32;1.35;;;15.40;64.10;;;;;;5095081;28;20036;-68
2023/11/29 02:38:17;;;;;;;1.48;1.33;;;15.40;63.80;;;;;;5094458;28;20024;-68
2023/11/29 02:40:43;;;;;;;4.07;1.23;;;15.40;64.10;;;;;;5098076;28;20083;-70
2023/11/29 02:43:08;;;;;;;1.45;1.08;;;15.40;63.80;;;;;;5097438;28;20103;-68
2023/11/29 02:45:34;;;;;;;1.88;1.15;;;15.40;63.80;;;;;;5097987;28;20020;-66
2023/11/29 02:47:59;;;;;;;1.55;1.30;;;15.40;63.90;;;;;;5096427;28;20035;-67
2023/11/29 02:50:25;;;;;;;1.60;1.00;;;15.40;64.20;;;;;;5097472;28;20031;-69
2023/11/29 02:52:50;;;;;;;1.10;0.85;;;15.40;63.80;;;;;;5094951;28;20654;-68
2023/11/29 02:55:16;;;;;;;1.23;1.10;;;15.40;63.60;;;;;;5098087;28;20109;-71
2023/11/29 02:57:42;;;;;;;2.45;0.80;;;15.40;63.80;;;;;;5094840;28;20130;-72
2023/11/29 03:00:09;;;;;;;1.67;1.10;;;15.40;63.80;;;;;;5095392;28;20035;-71
2023/11/29 03:02:35;;;;;;;1.98;1.20;;;15.40;63.80;;;;;;5091838;28;20036;-70
2023/11/29 03:05:00;;;;;;;1.55;1.10;;;15.40;64.40;;;;;;5097909;28;20042;-71
2023/11/29 03:07:26;;;;;;;8.15;1.17;;;15.40;63.70;;;;;;5077664;28;20517;-68
2023/11/29 03:09:51;;;;;;;1.90;1.15;;;15.40;64.70;;;;;;5099737;28;20085;-67
2023/11/29 03:12:17;;;;;;;2.65;1.20;;;15.70;59.20;;;;;;5089035;28;20119;-70
2023/11/29 03:14:42;;;;;;;4.63;1.20;;;16.10;59.80;;;;;;5083261;28;20086;-69
2023/11/29 03:17:08;;;;;;;4.95;1.23;;;16.10;61.30;;;;;;5091555;28;20036;-68
2023/11/29 03:19:33;;;;;;;7.60;1.55;;;15.90;62.20;;;;;;5104307;28;20031;-69
2023/11/29 03:21:59;;;;;;;2.75;1.10;;;15.80;62.70;;;;;;5103182;28;20036;-70
2023/11/29 03:24:24;;;;;;;4.32;1.55;;;15.70;63.00;;;;;;5094341;28;20023;-70
2023/11/29 03:26:50;;;;;;;1.98;1.13;;;15.60;63.40;;;;;;5087944;28;20036;-68
2023/11/29 03:29:15;;;;;;;1.75;0.98;;;15.60;62.80;;;;;;5097040;28;20106;-67
2023/11/29 03:31:41;;;;;;;3.00;0.95;;;15.60;63.00;;;;;;5089188;28;20035;-68
2023/11/29 03:34:06;;;;;;;0.98;0.80;;;15.50;63.10;;;;;;5094738;28;20020;-70
2023/11/29 03:36:32;;;;;;;1.75;1.02;;;15.50;63.60;;;;;;5104615;28;20036;-70
2023/11/29 03:38:58;;;;;;;1.10;1.00;;;15.50;63.40;;;;;;5097026;28;20036;-70
2023/11/29 03:41:23;;;;;;;1.10;0.90;;;15.50;63.30;;;;;;5097397;28;20032;-71
2023/11/29 03:43:49;;;;;;;2.15;1.00;;;15.50;63.10;;;;;;5097361;28;20035;-68
2023/11/29 03:46:14;;;;;;;1.80;0.95;;;15.50;63.40;;;;;;5102559;28;20031;-70
2023/11/29 03:48:40;;;;;;;1.20;1.10;;;15.40;63.10;;;;;;5098928;28;20031;-70
2023/11/29 03:51:05;;;;;;;1.35;1.20;;;15.50;63.40;;;;;;5102291;28;20062;-70
2023/11/29 03:53:31;;;;;;;1.30;0.65;;;15.50;63.20;;;;;;5098537;28;20465;-69
2023/11/29 03:55:56;;;;;;;1.15;1.00;;;15.50;63.20;;;;;;5103529;28;20036;-68
2023/11/29 03:58:22;;;;;;;0.80;0.80;;;15.50;63.90;;;;;;5100771;28;20032;-67
2023/11/29 04:00:47;;;;;;;1.63;1.10;;;15.50;63.40;;;;;;5105096;28;20164;-67
2023/11/29 04:03:13;;;;;;;3.28;1.02;;;15.50;63.80;;;;;;5100764;28;20028;-68
2023/11/29 04:05:38;;;;;;;1.13;0.95;;;15.50;63.70;;;;;;5102657;28;20035;-68
2023/11/29 04:08:04;;;;;;;4.25;1.33;;;15.50;63.50;;;;;;5101237;28;20024;-69
2023/11/29 04:10:33;;;;;;;1.33;0.98;;;15.50;63.90;;;;;;5103927;28;20226;-69
2023/11/29 04:12:59;;;;;;;3.80;0.98;;;15.40;63.30;;;;;;5101821;28;20089;-70
2023/11/29 04:15:25;;;;;;;1.90;1.13;;;15.50;63.50;;;;;;5104023;28;20490;-70
2023/11/29 04:17:50;;;;;;;1.00;0.80;;;15.40;63.80;;;;;;5103405;28;20038;-69
2023/11/29 04:20:16;;;;;;;5.40;1.38;;;15.40;64.30;;;;;;5100043;28;20494;-68
2023/11/29 04:22:43;;;;;;;1.00;0.90;;;15.50;63.90;;;;;;5096572;28;20035;-68
2023/11/29 04:25:08;;;;;;;3.92;1.17;;;15.50;63.60;;;;;;5097391;28;20020;-70
2023/11/29 04:27:34;;;;;;;1.98;0.95;;;15.40;63.60;;;;;;5098823;28;20536;-69
2023/11/29 04:29:59;;;;;;;2.53;1.00;;;15.40;63.60;;;;;;5096659;28;20028;-71
2023/11/29 04:32:25;;;;;;;1.98;1.27;;;15.40;63.60;;;;;;5099469;28;20080;-70
2023/11/29 04:34:50;;;;;;;2.17;1.08;;;15.40;63.50;;;;;;5096971;28;20046;-70
2023/11/29 04:37:16;;;;;;;1.92;0.90;;;15.40;63.70;;;;;;5098078;28;20059;-68
2023/11/29 04:39:42;;;;;;;1.42;0.80;;;15.40;63.70;;;;;;5095161;28;20123;-70
2023/11/29 04:42:08;;;;;;;1.40;1.00;;;15.40;63.70;;;;;;5097283;28;20042;-69
2023/11/29 04:44:35;;;;;;;2.40;0.88;;;15.40;63.60;;;;;;5097458;28;20024;-68
2023/11/29 04:47:01;;;;;;;2.08;1.05;;;15.40;63.80;;;;;;5098915;28;20299;-70
2023/11/29 04:49:27;;;;;;;6.50;1.50;;;15.50;63.80;;;;;;5081572;28;20402;-70
2023/11/29 04:51:52;;;;;;;3.03;1.00;;;15.50;64.00;;;;;;5096269;28;20040;-69
2023/11/29 04:54:18;;;;;;;10.82;1.27;;;15.50;63.80;;;;;;5071578;28;20037;-68
2023/11/29 04:56:44;;;;;;;13.93;2.17;;;15.50;64.50;;;;;;5067901;28;20035;-71
2023/11/29 04:59:10;;;;;;;5.07;1.10;;;15.50;64.10;;;;;;5090070;28;20104;-71
2023/11/29 05:01:35;;;;;;;5.28;1.20;;;15.50;63.60;;;;;;5089005;28;20071;-71
2023/11/29 05:04:01;;;;;;;4.40;0.90;;;15.50;63.20;;;;;;5099872;28;20518;-68
2023/11/29 05:06:26;;;;;;;1.67;0.90;;;15.50;63.50;;;;;;5089149;28;20032;-69
2023/11/29 05:08:52;;;;;;;2.17;1.15;;;15.50;63.50;;;;;;5090660;28;20028;-68
2023/11/29 05:11:17;;;;;;;5.55;0.88;;;15.50;63.50;;;;;;5097813;28;20032;-69
2023/11/29 05:13:43;;;;;;;1.23;1.10;;;15.40;63.40;;;;;;5088943;28;20046;-67
2023/11/29 05:16:08;;;;;;;2.90;1.25;;;15.40;63.30;;;;;;5100210;28;20103;-71
2023/11/29 05:18:34;;;;;;;1.65;0.80;;;15.40;63.50;;;;;;5095659;28;20035;-71
2023/11/29 05:21:00;;;;;;;1.15;0.80;;;15.40;63.50;;;;;;5089393;28;20024;-71
2023/11/29 05:23:28;;;;;;;1.52;1.02;;;15.40;63.50;;;;;;5088527;28;20036;-71
2023/11/29 05:25:54;;;;;;;1.20;0.90;;;15.40;63.50;;;;;;5089065;28;20116;-71
2023/11/29 05:28:26;;;;;;;0.80;0.80;;;15.40;63.50;;;;;;5080155;28;20111;-71
2023/11/29 05:30:52;;;;;;;1.42;0.82;;;15.40;63.60;;;;;;5100464;28;20036;-71
2023/11/29 05:33:18;;;;;;;0.70;0.70;;;15.40;63.40;;;;;;5090779;28;20103;-71
2023/11/29 05:35:45;;;;;;;0.88;0.70;;;15.40;63.60;;;;;;5083132;28;20109;-71
2023/11/29 05:38:11;;;;;;;0.80;0.70;;;15.40;63.20;;;;;;5096307;28;20031;-71
2023/11/29 05:40:36;;;;;;;0.68;0.65;;;15.40;63.40;;;;;;5095767;28;20103;-71
2023/11/29 05:43:02;;;;;;;0.85;0.60;;;15.40;63.60;;;;;;5088025;28;20016;-72
2023/11/29 05:45:27;;;;;;;1.15;0.77;;;15.40;63.70;;;;;;5079825;28;20020;-71
2023/11/29 05:47:53;;;;;;;3.40;0.90;;;15.40;63.80;;;;;;5092252;28;20059;-71
2023/11/29 05:50:18;;;;;;;0.90;0.80;;;15.40;63.70;;;;;;5093046;28;20028;-71
2023/11/29 05:52:45;;;;;;;4.88;0.85;;;15.40;63.70;;;;;;5088602;28;20039;-69
2023/11/29 05:55:11;;;;;;;7.47;1.27;;;15.40;63.90;;;;;;5091692;28;20440;-70
2023/11/29 05:57:37;;;;;;;6.50;1.10;;;15.60;65.00;;;;;;5087651;28;22304;-71
2023/11/29 06:00:09;;;;;;;5.28;1.30;;;15.80;63.20;;;;;;5089577;28;20104;-71
2023/11/29 06:02:35;;;;;;;1.35;0.90;;;15.80;62.50;;;;;;5088289;28;20036;-71
2023/11/29 06:05:04;;;;;;;3.13;0.82;;;15.70;62.40;;;;;;5093017;28;20518;-70
2023/11/29 06:07:31;;;;;;;3.83;0.80;;;15.60;62.60;;;;;;5095964;28;20090;-74
2023/11/29 06:09:57;;;;;;;1.33;0.68;;;16.10;58.50;;;;;;5089418;28;20096;-70
2023/11/29 06:12:23;;;;;;;1.10;0.70;;;16.50;57.80;;;;;;5087884;28;20498;-66
2023/11/29 06:14:49;;;;;;;4.00;0.90;;;16.80;56.10;;;;;;5088071;28;20039;-68
2023/11/29 06:17:14;;;;;;;8.45;1.15;;;16.40;56.30;;;;;;5086016;28;20028;-68
2023/11/29 06:19:40;;;;;;;4.90;1.45;;;16.00;57.20;;;;;;5084863;28;20043;-69
2023/11/29 06:22:05;;;;;;;4.90;1.27;;;15.60;57.70;;;;;;5104378;28;20062;-68
2023/11/29 06:24:31;;;;;;;2.35;1.15;;;15.40;58.00;;;;;;5088847;28;20028;-68
2023/11/29 06:26:59;;;;;;;6.13;1.27;;;15.30;58.70;;;;;;5089551;28;20024;-67
2023/11/29 06:29:24;;;;;;;1.48;1.30;;;15.20;58.80;;;;;;5095920;28;20032;-71
2023/11/29 06:31:50;;;;;;;1.33;1.02;;;15.20;58.80;;;;;;5097011;28;20085;-71
2023/11/29 06:34:15;;;;;;;1.20;1.10;;;15.10;58.90;;;;;;5086545;28;20028;-69
2023/11/29 06:36:42;;;;;;;2.50;1.40;;;15.00;59.20;;;;;;5088128;28;20743;-68
2023/11/29 06:39:09;;;;;;;2.53;1.60;;;15.00;59.10;;;;;;5094635;28;21024;-69
2023/11/29 06:41:35;;;;;;;1.50;1.30;;;15.00;59.20;;;;;;5093438;28;20032;-70
2023/11/29 06:44:01;;;;;;;1.48;1.13;;;14.90;58.70;;;;;;5086151;28;20040;-69
2023/11/29 06:46:26;;;;;;;1.50;1.40;;;14.90;59.10;;;;;;5093080;28;20024;-69
2023/11/29 06:48:52;;;;;;;1.33;1.20;;;14.90;59.20;;;;;;5086708;28;20586;-71
2023/11/29 06:51:17;;;;;;;1.95;1.38;;;14.80;58.60;;;;;;5089517;28;20048;-69
2023/11/29 06:53:43;;;;;;;2.65;1.27;;;14.80;58.60;;;;;;5086114;28;20036;-68
2023/11/29 06:56:09;;;;;;;1.88;1.52;;;14.80;58.70;;;;;;5089995;28;20077;-70
2023/11/29 06:58:34;;;;;;;1.38;1.13;;;14.80;58.60;;;;;;5086235;28;20105;-70
2023/11/29 07:01:00;;;;;;;2.15;1.42;;;14.70;58.90;;;;;;5086035;28;20028;-70
2023/11/29 07:03:26;;;;;;;1.50;1.40;;;14.70;58.50;;;;;;5085931;28;20020;-70
2023/11/29 07:05:52;;;;;;;2.08;1.30;;;14.70;58.80;;;;;;5095176;28;20502;-70
2023/11/29 07:08:18;;;;;;;1.20;1.10;;;14.70;58.40;;;;;;5085883;28;20032;-69
2023/11/29 07:10:44;;;;;;;1.20;1.10;;;14.60;58.80;;;;;;5089403;28;20081;-68
2023/11/29 07:13:12;;;;;;;2.33;1.80;;;14.60;58.50;;;;;;5088708;28;20028;-68
2023/11/29 07:15:37;;;;;;;1.90;1.45;;;14.60;59.00;;;;;;5089009;28;20053;-69
2023/11/29 07:18:03;;;;;;;1.83;1.40;;;14.60;58.80;;;;;;5091455;28;20111;-68
2023/11/29 07:20:28;;;;;;;3.00;2.05;;;14.50;58.70;;;;;;5095930;28;20043;-69
2023/11/29 07:22:54;;;;;;;2.40;2.20;;;14.50;59.00;;;;;;5088600;28;20047;-69
2023/11/29 07:25:19;;;;;;;2.30;1.77;;;14.50;59.00;;;;;;5100890;28;20042;-68
2023/11/29 07:27:45;;;;;;;3.45;1.70;;;14.50;59.10;;;;;;5101821;28;20528;-68
2023/11/29 07:30:11;;;;;;;4.20;1.80;;;14.50;59.00;;;;;;5079231;28;20039;-68
2023/11/29 07:32:36;;;;;;;2.58;1.73;;;14.50;59.40;;;;;;5101805;28;20041;-68
2023/11/29 07:35:02;;;;;;;2.13;1.92;;;14.50;59.20;;;;;;5080766;28;20024;-68
2023/11/29 07:37:28;;;;;;;2.50;2.00;;;14.50;59.40;;;;;;5093892;28;20034;-70
2023/11/29 07:39:53;;;;;;;1.98;1.58;;;14.40;59.20;;;;;;5078153;28;20044;-68
2023/11/29 07:42:19;;;;;;;3.47;1.88;;;14.40;59.10;;;;;;5096238;28;20039;-69
2023/11/29 07:44:44;;;;;;;2.17;1.95;;;14.40;59.10;;;;;;5099800;28;20122;-68
2023/11/29 07:47:11;;;;;;;4.18;2.38;;;14.40;59.00;;;;;;5101161;28;20101;-69
2023/11/29 07:49:36;;;;;;;4.03;2.45;;;14.40;59.10;;;;;;5101541;28;20039;-68
2023/11/29 07:52:02;;;;;;;3.78;2.17;;;14.40;59.00;;;;;;5101706;28;20042;-69
2023/11/29 07:54:28;;;;;;;2.55;1.98;;;14.30;58.90;;;;;;5081215;28;20036;-68
2023/11/29 07:56:54;;;;;;;4.68;2.63;;;14.30;58.80;;;;;;5101183;28;20042;-68
2023/11/29 07:59:19;;;;;;;5.53;2.85;;;14.30;58.80;;;;;;5083800;28;20455;-69
2023/11/29 08:01:45;;;;;;;3.15;2.10;;;14.30;59.10;;;;;;5016486;28;20078;-69
2023/11/29 08:04:10;;;;;;;4.70;2.65;;;14.30;58.70;;;;;;5082475;28;20088;-69
2023/11/29 08:06:36;;;;;;;2.92;2.10;;;14.30;58.30;;;;;;5100007;28;20180;-69
2023/11/29 08:09:02;;;;;;;3.78;2.63;;;14.30;58.70;;;;;;5098089;28;20043;-68
2023/11/29 08:11:29;;;;;;;3.53;2.20;;;14.20;58.50;;;;;;5099246;28;20085;-68
2023/11/29 08:13:55;;;;;;;4.05;2.35;;;14.20;59.00;;;;;;5101887;28;20090;-68
2023/11/29 08:16:20;;;;;;;2.95;2.40;;;14.20;58.80;;;;;;5100030;28;20518;-69
2023/11/29 08:18:46;;;;;;;2.42;2.03;;;14.20;58.50;;;;;;5100218;28;20054;-69
2023/11/29 08:21:12;;;;;;;4.78;2.67;;;14.20;58.50;;;;;;5080510;28;20027;-69
2023/11/29 08:23:37;;;;;;;4.47;2.88;;;14.20;58.40;;;;;;5098054;28;20418;-68
2023/11/29 08:26:04;;;;;;;5.85;2.72;;;14.20;59.20;;;;;;5100923;28;20121;-69
2023/11/29 08:28:30;;;;;;;5.93;2.38;;;14.20;59.30;;;;;;5100511;28;20055;-68
2023/11/29 08:30:55;;;;;;;5.10;2.33;;;14.30;59.40;;;;;;5092222;28;20584;-69
2023/11/29 08:33:21;;;;;;;3.45;2.33;;;14.30;59.30;;;;;;5097879;28;20038;-66
2023/11/29 08:35:47;;;;;;;3.55;2.53;;;14.30;59.30;;;;;;5094119;28;20024;-67
2023/11/29 08:38:14;;;;;;;2.83;2.45;;;14.30;59.00;;;;;;5092485;28;20383;-68
2023/11/29 08:40:39;;;;;;;4.88;2.33;;;14.20;58.90;;;;;;5100112;28;20075;-68
2023/11/29 08:43:06;;;;;;;3.47;2.28;;;14.20;58.70;;;;;;5085530;28;20038;-67
2023/11/29 08:45:32;;;;;;;3.47;2.45;;;14.20;59.00;;;;;;5101098;28;20028;-68
2023/11/29 08:47:58;;;;;;;4.78;1.98;;;14.10;58.90;;;;;;5101495;28;20028;-69
2023/11/29 08:50:23;;;;;;;3.20;2.22;;;14.10;59.00;;;;;;5101992;28;20020;-68
2023/11/29 08:52:50;;;;;;;2.90;2.30;;;14.10;59.00;;;;;;5105432;28;20716;-69
2023/11/29 08:55:15;;;;;;;5.07;2.20;;;14.20;58.90;;;;;;5102952;28;20056;-68
2023/11/29 08:57:41;;;;;;;4.10;3.08;;;14.20;59.00;;;;;;5103373;28;20066;-68
2023/11/29 09:00:09;;;;;;;2.60;2.08;;;14.20;59.10;;;;;;5101909;28;20038;-67
2023/11/29 09:02:36;;;;;;;3.65;2.60;;;14.20;58.50;;;;;;5102610;28;20060;-67
2023/11/29 09:05:03;;;;;;;3.35;2.28;;;14.10;59.20;;;;;;5103710;28;20027;-70
2023/11/29 09:07:28;;;;;;;21.42;4.68;;;14.10;59.10;;;;;;5102192;28;20137;-65
2023/11/29 09:09:56;;;;;;;21.50;4.85;;;14.40;60.70;;;;;;5076076;28;20119;-67
2023/11/29 09:12:25;;;;;;;23.55;5.35;;;14.50;60.20;;;;;;5095536;28;20044;-68
2023/11/29 09:14:53;;;;;;;24.65;4.88;;;14.50;60.30;;;;;;5098341;28;20135;-68
2023/11/29 09:17:20;;;;;;;20.27;4.10;;;14.50;60.40;;;;;;5102682;28;20089;-67
2023/11/29 09:19:45;;;;;;;22.27;4.57;;;14.50;60.50;;;;;;5099964;28;20458;-68
2023/11/29 09:22:11;;;;;;;13.38;4.05;;;14.50;60.60;;;;;;5102236;28;20032;-67
2023/11/29 09:24:37;;;;;;;22.60;4.22;;;14.50;60.50;;;;;;5102663;28;20402;-68
2023/11/29 09:27:04;;;;;;;17.75;4.82;;;14.50;60.70;;;;;;5098756;28;20031;-67
2023/11/29 09:29:30;;;;;;;13.73;3.83;;;14.60;60.50;;;;;;5100324;27;20035;-67
2023/11/29 09:31:56;;;;;;;11.35;3.70;;;14.60;60.30;;;;;;5098858;28;20039;-68
2023/11/29 09:34:22;;;;;;;16.15;3.83;;;14.60;60.30;;;;;;5098971;28;20088;-67
2023/11/29 09:36:48;;;;;;;6.90;3.10;;;14.70;60.20;;;;;;5102288;28;20027;-67
2023/11/29 09:39:15;;;;;;;12.30;4.07;;;14.70;60.30;;;;;;5099634;28;20031;-67
2023/11/29 09:41:40;;;;;;;11.90;3.47;;;14.70;60.40;;;;;;5102979;28;20552;-68
2023/11/29 09:44:06;;;;;;;13.00;3.55;;;14.70;60.60;;;;;;5101144;28;20035;-68
2023/11/29 09:46:32;;;;;;;11.38;3.15;;;14.70;60.60;;;;;;5103594;28;20035;-67
2023/11/29 09:48:59;;;;;;;12.43;3.45;;;14.60;60.70;;;;;;5083633;28;20480;-68
2023/11/29 09:51:25;;;;;;;16.00;3.90;;;14.70;60.70;;;;;;5101707;28;20038;-68
2023/11/29 09:53:50;;;;;;;10.57;3.05;;;14.60;60.80;;;;;;5101079;28;20043;-67
2023/11/29 09:56:18;;;;;;;9.98;3.55;;;14.60;60.90;;;;;;5094839;28;20119;-68
2023/11/29 09:58:43;;;;;;;9.98;3.40;;;14.70;60.80;;;;;;5101706;28;20174;-67
2023/11/29 10:01:09;;;;;;;10.82;3.25;;;14.60;60.70;;;;;;5078515;28;20036;-67
2023/11/29 10:03:34;;;;;;;8.57;2.78;;;14.70;60.60;;;;;;5092988;28;20126;-67
2023/11/29 10:06:03;;;;;;;8.38;2.72;;;14.60;60.60;;;;;;5096489;28;20097;-67
2023/11/29 10:08:28;;;;;;;7.38;2.92;;;14.70;60.80;;;;;;5103091;28;20518;-67
2023/11/29 10:10:54;;;;;;;7.70;3.10;;;14.60;60.90;;;;;;5094594;28;20031;-66
2023/11/29 10:13:20;;;;;;;7.55;3.20;;;14.60;61.00;;;;;;5096446;28;20051;-67
2023/11/29 10:15:47;;;;;;;8.10;3.35;;;14.70;60.90;;;;;;5071637;28;20550;-67
2023/11/29 10:18:16;;;;;;;6.95;2.75;;;14.70;60.90;;;;;;5100029;28;20032;-67
2023/11/29 10:20:46;;;;;;;6.03;2.60;;;14.60;61.00;;;;;;5102336;28;20055;-67
2023/11/29 10:23:15;;;;;;;10.75;3.10;;;14.60;61.10;;;;;;5096877;28;20020;-67
2023/11/29 10:25:43;;;;;;;9.50;3.35;;;14.70;61.00;;;;;;5101193;28;20027;-67
2023/11/29 10:28:08;;;;;;;6.60;2.80;;;14.70;61.00;;;;;;5097391;28;20124;-67
2023/11/29 10:30:34;;;;;;;6.78;2.30;;;14.70;61.20;;;;;;5099688;28;20106;-67
2023/11/29 10:33:02;;;;;;;6.30;2.80;;;14.60;61.20;;;;;;5078123;28;20453;-66
2023/11/29 10:35:30;;;;;;;4.55;2.72;;;14.60;61.20;;;;;;5087807;28;20020;-67
2023/11/29 10:38:12;;;;;;;5.53;2.97;;;14.70;61.40;;;;;;5089572;28;20500;-67
2023/11/29 10:40:39;;;;;;;7.25;2.38;;;14.60;61.30;;;;;;5084153;28;20032;-67
2023/11/29 10:43:07;;;;;;;6.78;2.45;;;14.70;61.40;;;;;;5092624;28;20027;-67
2023/11/29 10:45:36;;;;;;;6.95;2.67;;;14.60;61.30;;;;;;5084613;28;20024;-68
2023/11/29 10:48:10;;;;;;;5.85;2.58;;;14.70;61.50;;;;;;5094363;28;20027;-67
2023/11/29 10:50:36;;;;;;;5.25;2.85;;;14.60;61.50;;;;;;5093501;28;20024;-67
2023/11/29 10:53:02;;;;;;;4.85;2.20;;;14.60;61.50;;;;;;5095218;28;20048;-68
2023/11/29 10:55:28;;;;;;;7.68;2.60;;;14.60;61.50;;;;;;5092593;28;20066;-67
2023/11/29 10:58:02;;;;;;;6.03;2.17;;;14.60;61.50;;;;;;5106530;28;20028;-68
2023/11/29 11:00:29;;;;;;;5.93;2.55;;;14.60;61.50;;;;;;5097726;28;20065;-68
2023/11/29 11:02:55;;;;;;;6.18;2.40;;;14.60;61.50;;;;;;5090567;28;20036;-67
2023/11/29 11:05:23;;;;;;;9.25;4.57;;;14.60;61.60;;;;;;5096290;28;20460;-68
2023/11/29 11:07:50;;;;;;;25.08;12.43;;;14.60;61.60;;;;;;5091700;28;20052;-68
2023/11/29 11:10:25;;;;;;;33.67;16.05;;;14.60;61.60;;;;;;5094071;28;20028;-68
2023/11/29 11:12:51;;;;;;;47.65;26.90;;;14.70;61.70;;;;;;5093376;28;20080;-68
2023/11/29 11:15:24;;;;;;;57.03;29.33;;;14.60;61.70;;;;;;5093446;28;20077;-68
2023/11/29 11:18:01;;;;;;;66.47;37.90;;;14.60;61.80;;;;;;5098608;28;20057;-68
2023/11/29 11:20:51;;;;;;;79.18;44.95;;;14.60;61.80;;;;;;5097157;28;20410;-68
2023/11/29 11:23:19;;;;;;;96.13;51.83;;;14.60;61.90;;;;;;5094780;28;20020;-68
2023/11/29 11:25:45;;;;;;;104.32;56.42;;;14.60;62.00;;;;;;5098899;28;20043;-68
2023/11/29 11:28:32;;;;;;;105.50;59.10;;;14.60;61.90;;;;;;5105425;28;20028;-68
2023/11/29 11:31:02;;;;;;;119.55;62.72;;;14.60;62.00;;;;;;5101977;28;20054;-68
2023/11/29 11:33:52;;;;;;;124.10;68.13;;;14.60;61.90;;;;;;5094606;28;20028;-68
2023/11/29 11:36:22;;;;;;;133.27;71.18;;;14.60;61.90;;;;;;5093341;28;20448;-69
2023/11/29 11:38:49;;;;;;;135.32;72.20;;;14.50;62.00;;;;;;5091124;28;20039;-67
2023/11/29 11:41:15;;;;;;;133.85;73.63;;;14.50;62.10;;;;;;5096694;28;20030;-67
2023/11/29 11:43:41;;;;;;;135.57;76.68;;;14.50;62.10;;;;;;5091350;28;20032;-68
2023/11/29 11:46:06;;;;;;;143.68;77.43;;;14.50;62.20;;;;;;5085904;28;20044;-67
2023/11/29 11:48:32;;;;;;;144.75;80.20;;;14.50;62.20;;;;;;5104358;28;20023;-67
2023/11/29 11:50:59;;;;;;;136.02;79.65;;;14.50;62.20;;;;;;5090658;28;20054;-67
2023/11/29 11:53:24;;;;;;;144.48;79.05;;;14.50;62.30;;;;;;5091946;28;20122;-65
2023/11/29 11:55:51;;;;;;;150.45;82.07;;;14.50;62.30;;;;;;5086758;28;20060;-67
2023/11/29 11:58:18;;;;;;;154.95;85.05;;;14.50;62.30;;;;;;5092097;28;20016;-68
2023/11/29 12:00:45;;;;;;;153.10;88.20;;;14.50;62.80;;;;;;5087481;28;20073;-68
2023/11/29 12:03:11;;;;;;;151.88;85.88;;;14.50;62.30;;;;;;5093025;28;20052;-67
2023/11/29 12:05:36;;;;;;;151.20;84.80;;;14.50;62.20;;;;;;5084943;28;20491;-68
2023/11/29 12:08:03;;;;;;;157.57;87.88;;;14.50;62.30;;;;;;5092733;28;20039;-66
2023/11/29 12:10:30;;;;;;;155.88;86.57;;;14.50;62.30;;;;;;5103143;28;20024;-67
2023/11/29 12:12:56;;;;;;;155.32;86.07;;;14.50;62.30;;;;;;5085426;28;20100;-67
2023/11/29 12:15:22;;;;;;;153.30;89.13;;;14.50;62.40;;;;;;5096813;28;20032;-68
2023/11/29 12:17:48;;;;;;;155.25;88.32;;;14.50;62.40;;;;;;5096821;28;20035;-68
2023/11/29 12:20:14;;;;;;;151.02;86.47;;;14.50;62.30;;;;;;5086278;28;20492;-68
2023/11/29 12:22:44;;;;;;;160.82;88.80;;;14.50;62.40;;;;;;5091451;28;20043;-68
2023/11/29 12:25:12;;;;;;;146.80;87.72;;;14.50;62.40;;;;;;5093647;28;20023;-68
2023/11/29 12:27:38;;;;;;;157.05;88.35;;;14.50;62.50;;;;;;5090321;28;20031;-68
2023/11/29 12:30:08;;;;;;;153.40;89.00;;;14.50;62.50;;;;;;5096802;28;20020;-68
2023/11/29 12:32:34;;;;;;;161.57;89.85;;;14.50;62.50;;;;;;5078543;28;20107;-73
2023/11/29 12:34:59;;;;;;;155.93;90.35;;;14.50;62.60;;;;;;5097507;28;20107;-68
2023/11/29 12:37:26;;;;;;;143.95;85.75;;;14.50;62.50;;;;;;5093947;28;20405;-68
2023/11/29 12:39:56;;;;;;;158.75;89.68;;;14.50;62.60;;;;;;5093445;28;20497;-66